Huvudsida
METAR-TAF:

METAR-TAF

Flygplatser :

Capo Mele

Andora, Italien

latitud: 43-57N, longitud: 008-10E, höjd: 220 m

Aktuellt väderrapport

Denna rapport gjordes för 49 minuter sedan, klockan 03:55 UTC
Vind 3 kt från nord/nordost
Temperatur 21°C
Fuktighet 88%
Tryck 1015 hPa
Sikt 10 km eller mer
Inga moln under 1 500 m eller inga cumulonimbus

METAR: LIMU 190355Z 03003KT CAVOK 21/19 Q1015 RMK FEW FEW200 QUK 1 QUL 1 SE VIS MAR 20 KM VIS MIN 9999

Tid: 06:44 (04:44 UTC)


TAF: saknas

Aktuella väderrapporter och prognoser från 4000 flygplatser (METAR- och TAF-rapporter).

De tillgängliga stationerna syns som gula och röda prickar på kartan.

För musen över prickarna för att se namnen på stationerna.

Klicka sedan för att få väderrapporter och prognoser.

För att ändra kartan: Klicka på de gröna knapparna med ett svart kors på för att zooma in; den gröna knappen med ett streck på för att zooma ut; eller på de gröna pilarna för angränsande kartor.


METAR-TAF: